sensor_id;sensor_type;location;lat;lon;timestamp;P1;durP1;ratioP1;P2;durP2;ratioP2
73938;SDS011;62291;47.554;8.504;2023-02-18T00:00:37;4.65;;;3.03;;
73938;SDS011;62291;47.554;8.504;2023-02-18T00:03:03;3.60;;;2.90;;
73938;SDS011;62291;47.554;8.504;2023-02-18T00:05:28;3.97;;;2.88;;
73938;SDS011;62291;47.554;8.504;2023-02-18T00:07:54;5.05;;;3.00;;
73938;SDS011;62291;47.554;8.504;2023-02-18T00:10:20;4.68;;;2.90;;
73938;SDS011;62291;47.554;8.504;2023-02-18T00:12:45;4.47;;;3.55;;
73938;SDS011;62291;47.554;8.504;2023-02-18T00:15:11;6.15;;;3.38;;
73938;SDS011;62291;47.554;8.504;2023-02-18T00:17:37;4.47;;;3.35;;
73938;SDS011;62291;47.554;8.504;2023-02-18T00:20:03;4.50;;;2.83;;
73938;SDS011;62291;47.554;8.504;2023-02-18T00:22:30;4.05;;;3.20;;
73938;SDS011;62291;47.554;8.504;2023-02-18T00:24:56;5.25;;;3.22;;
73938;SDS011;62291;47.554;8.504;2023-02-18T00:27:21;4.00;;;2.95;;
73938;SDS011;62291;47.554;8.504;2023-02-18T00:29:47;3.78;;;3.00;;
73938;SDS011;62291;47.554;8.504;2023-02-18T00:32:13;4.25;;;2.97;;
73938;SDS011;62291;47.554;8.504;2023-02-18T00:34:38;6.63;;;3.00;;
73938;SDS011;62291;47.554;8.504;2023-02-18T00:37:04;3.38;;;2.80;;
73938;SDS011;62291;47.554;8.504;2023-02-18T00:39:30;3.42;;;2.45;;
73938;SDS011;62291;47.554;8.504;2023-02-18T00:41:55;4.47;;;2.80;;
73938;SDS011;62291;47.554;8.504;2023-02-18T00:44:21;3.72;;;2.90;;
73938;SDS011;62291;47.554;8.504;2023-02-18T00:46:47;3.97;;;2.53;;
73938;SDS011;62291;47.554;8.504;2023-02-18T00:49:14;3.47;;;2.60;;
73938;SDS011;62291;47.554;8.504;2023-02-18T00:51:40;5.32;;;2.75;;
73938;SDS011;62291;47.554;8.504;2023-02-18T00:54:06;4.13;;;2.42;;
73938;SDS011;62291;47.554;8.504;2023-02-18T00:56:32;3.90;;;2.10;;
73938;SDS011;62291;47.554;8.504;2023-02-18T00:58:58;3.28;;;2.10;;
73938;SDS011;62291;47.554;8.504;2023-02-18T01:01:24;2.60;;;2.10;;
73938;SDS011;62291;47.554;8.504;2023-02-18T01:03:50;3.42;;;2.30;;
73938;SDS011;62291;47.554;8.504;2023-02-18T01:06:16;2.88;;;1.90;;
73938;SDS011;62291;47.554;8.504;2023-02-18T01:08:42;3.60;;;2.13;;
73938;SDS011;62291;47.554;8.504;2023-02-18T01:11:08;3.53;;;2.35;;
73938;SDS011;62291;47.554;8.504;2023-02-18T01:13:35;4.00;;;2.30;;
73938;SDS011;62291;47.554;8.504;2023-02-18T01:16:01;2.38;;;1.77;;
73938;SDS011;62291;47.554;8.504;2023-02-18T01:18:27;3.28;;;1.75;;
73938;SDS011;62291;47.554;8.504;2023-02-18T01:20:53;2.58;;;1.92;;
73938;SDS011;62291;47.554;8.504;2023-02-18T01:23:19;2.78;;;1.98;;
73938;SDS011;62291;47.554;8.504;2023-02-18T01:25:46;2.92;;;1.90;;
73938;SDS011;62291;47.554;8.504;2023-02-18T01:28:12;2.75;;;1.80;;
73938;SDS011;62291;47.554;8.504;2023-02-18T01:30:38;2.42;;;1.67;;
73938;SDS011;62291;47.554;8.504;2023-02-18T01:33:04;4.60;;;1.75;;
73938;SDS011;62291;47.554;8.504;2023-02-18T01:35:30;2.42;;;1.60;;
73938;SDS011;62291;47.554;8.504;2023-02-18T01:37:56;2.85;;;1.42;;
73938;SDS011;62291;47.554;8.504;2023-02-18T01:40:25;2.00;;;1.38;;
73938;SDS011;62291;47.554;8.504;2023-02-18T01:42:52;1.80;;;1.20;;
73938;SDS011;62291;47.554;8.504;2023-02-18T01:48:11;1.92;;;1.20;;
73938;SDS011;62291;47.554;8.504;2023-02-18T01:50:55;1.88;;;1.30;;
73938;SDS011;62291;47.554;8.504;2023-02-18T01:53:27;1.95;;;1.10;;
73938;SDS011;62291;47.554;8.504;2023-02-18T01:56:01;2.85;;;1.30;;
73938;SDS011;62291;47.554;8.504;2023-02-18T01:58:30;2.33;;;0.98;;
73938;SDS011;62291;47.554;8.504;2023-02-18T02:00:57;1.58;;;0.95;;
73938;SDS011;62291;47.554;8.504;2023-02-18T02:03:23;1.20;;;0.90;;
73938;SDS011;62291;47.554;8.504;2023-02-18T02:05:48;1.08;;;0.82;;
73938;SDS011;62291;47.554;8.504;2023-02-18T02:08:14;1.98;;;0.90;;
73938;SDS011;62291;47.554;8.504;2023-02-18T02:16:29;1.10;;;0.77;;
73938;SDS011;62291;47.554;8.504;2023-02-18T02:27:39;1.60;;;0.65;;
73938;SDS011;62291;47.554;8.504;2023-02-18T02:35:53;2.70;;;1.75;;
73938;SDS011;62291;47.554;8.504;2023-02-18T02:38:31;2.67;;;2.20;;
73938;SDS011;62291;47.554;8.504;2023-02-18T02:46:27;3.60;;;2.70;;
73938;SDS011;62291;47.554;8.504;2023-02-18T02:54:23;3.67;;;2.75;;
73938;SDS011;62291;47.554;8.504;2023-02-18T02:57:03;5.68;;;3.28;;
73938;SDS011;62291;47.554;8.504;2023-02-18T02:59:30;6.63;;;3.50;;
73938;SDS011;62291;47.554;8.504;2023-02-18T03:02:04;5.38;;;3.20;;
73938;SDS011;62291;47.554;8.504;2023-02-18T03:11:03;5.43;;;3.63;;
73938;SDS011;62291;47.554;8.504;2023-02-18T03:23:58;6.47;;;4.13;;
73938;SDS011;62291;47.554;8.504;2023-02-18T03:26:25;6.47;;;3.90;;
73938;SDS011;62291;47.554;8.504;2023-02-18T03:28:54;8.02;;;4.50;;
73938;SDS011;62291;47.554;8.504;2023-02-18T03:31:24;5.88;;;4.45;;
73938;SDS011;62291;47.554;8.504;2023-02-18T03:34:01;5.93;;;4.40;;
73938;SDS011;62291;47.554;8.504;2023-02-18T03:36:30;7.55;;;4.68;;
73938;SDS011;62291;47.554;8.504;2023-02-18T03:39:02;6.40;;;4.45;;
73938;SDS011;62291;47.554;8.504;2023-02-18T03:41:32;8.65;;;4.78;;
73938;SDS011;62291;47.554;8.504;2023-02-18T03:44:01;7.97;;;4.28;;
73938;SDS011;62291;47.554;8.504;2023-02-18T03:46:29;7.72;;;4.55;;
73938;SDS011;62291;47.554;8.504;2023-02-18T03:48:56;7.00;;;4.85;;
73938;SDS011;62291;47.554;8.504;2023-02-18T03:51:21;7.43;;;4.70;;
73938;SDS011;62291;47.554;8.504;2023-02-18T03:53:47;6.90;;;4.97;;
73938;SDS011;62291;47.554;8.504;2023-02-18T03:56:13;7.57;;;4.88;;
73938;SDS011;62291;47.554;8.504;2023-02-18T03:58:39;7.75;;;5.00;;
73938;SDS011;62291;47.554;8.504;2023-02-18T04:01:05;7.57;;;4.63;;
73938;SDS011;62291;47.554;8.504;2023-02-18T04:03:30;7.63;;;4.78;;
73938;SDS011;62291;47.554;8.504;2023-02-18T04:05:56;7.53;;;5.28;;
73938;SDS011;62291;47.554;8.504;2023-02-18T04:08:22;6.32;;;4.75;;
73938;SDS011;62291;47.554;8.504;2023-02-18T04:10:48;8.60;;;5.18;;
73938;SDS011;62291;47.554;8.504;2023-02-18T04:13:14;11.73;;;5.43;;
73938;SDS011;62291;47.554;8.504;2023-02-18T04:15:41;8.13;;;5.80;;
73938;SDS011;62291;47.554;8.504;2023-02-18T04:18:08;8.27;;;5.25;;
73938;SDS011;62291;47.554;8.504;2023-02-18T04:20:33;9.45;;;5.82;;
73938;SDS011;62291;47.554;8.504;2023-02-18T04:22:59;6.80;;;5.13;;
73938;SDS011;62291;47.554;8.504;2023-02-18T04:25:25;7.40;;;5.45;;
73938;SDS011;62291;47.554;8.504;2023-02-18T04:27:50;8.25;;;5.40;;
73938;SDS011;62291;47.554;8.504;2023-02-18T04:30:16;8.98;;;5.82;;
73938;SDS011;62291;47.554;8.504;2023-02-18T04:32:42;7.35;;;5.60;;
73938;SDS011;62291;47.554;8.504;2023-02-18T04:35:08;8.63;;;5.60;;
73938;SDS011;62291;47.554;8.504;2023-02-18T04:37:33;9.82;;;6.35;;
73938;SDS011;62291;47.554;8.504;2023-02-18T04:39:59;8.88;;;6.50;;
73938;SDS011;62291;47.554;8.504;2023-02-18T04:42:25;10.35;;;6.18;;
73938;SDS011;62291;47.554;8.504;2023-02-18T04:44:50;7.97;;;5.72;;
73938;SDS011;62291;47.554;8.504;2023-02-18T04:47:16;9.05;;;6.13;;
73938;SDS011;62291;47.554;8.504;2023-02-18T04:49:42;7.72;;;5.75;;
73938;SDS011;62291;47.554;8.504;2023-02-18T04:52:07;9.55;;;6.10;;
73938;SDS011;62291;47.554;8.504;2023-02-18T04:54:33;10.05;;;6.25;;
73938;SDS011;62291;47.554;8.504;2023-02-18T04:56:59;8.25;;;5.63;;
73938;SDS011;62291;47.554;8.504;2023-02-18T04:59:24;8.82;;;6.20;;
73938;SDS011;62291;47.554;8.504;2023-02-18T05:01:50;12.07;;;6.55;;
73938;SDS011;62291;47.554;8.504;2023-02-18T05:04:16;10.00;;;6.13;;
73938;SDS011;62291;47.554;8.504;2023-02-18T05:06:42;7.88;;;5.40;;
73938;SDS011;62291;47.554;8.504;2023-02-18T05:09:08;7.80;;;5.13;;
73938;SDS011;62291;47.554;8.504;2023-02-18T05:11:34;9.70;;;5.90;;
73938;SDS011;62291;47.554;8.504;2023-02-18T05:14:00;10.18;;;6.07;;
73938;SDS011;62291;47.554;8.504;2023-02-18T05:16:26;7.57;;;5.72;;
73938;SDS011;62291;47.554;8.504;2023-02-18T05:18:52;7.75;;;5.45;;
73938;SDS011;62291;47.554;8.504;2023-02-18T05:21:17;7.60;;;4.55;;
73938;SDS011;62291;47.554;8.504;2023-02-18T05:23:43;7.38;;;5.30;;
73938;SDS011;62291;47.554;8.504;2023-02-18T05:26:09;9.15;;;5.45;;
73938;SDS011;62291;47.554;8.504;2023-02-18T05:28:35;10.20;;;5.00;;
73938;SDS011;62291;47.554;8.504;2023-02-18T05:31:00;7.57;;;5.45;;
73938;SDS011;62291;47.554;8.504;2023-02-18T05:33:26;8.15;;;4.50;;
73938;SDS011;62291;47.554;8.504;2023-02-18T05:35:52;8.45;;;5.07;;
73938;SDS011;62291;47.554;8.504;2023-02-18T05:38:17;8.55;;;5.10;;
73938;SDS011;62291;47.554;8.504;2023-02-18T05:40:43;7.18;;;5.30;;
73938;SDS011;62291;47.554;8.504;2023-02-18T05:43:09;8.75;;;5.55;;
73938;SDS011;62291;47.554;8.504;2023-02-18T05:45:35;6.47;;;4.10;;
73938;SDS011;62291;47.554;8.504;2023-02-18T05:48:01;7.03;;;4.43;;
73938;SDS011;62291;47.554;8.504;2023-02-18T05:50:27;6.60;;;4.22;;
73938;SDS011;62291;47.554;8.504;2023-02-18T05:52:53;6.57;;;3.85;;
73938;SDS011;62291;47.554;8.504;2023-02-18T05:55:18;3.70;;;2.78;;
73938;SDS011;62291;47.554;8.504;2023-02-18T05:57:44;3.22;;;1.70;;
73938;SDS011;62291;47.554;8.504;2023-02-18T06:00:10;2.28;;;1.00;;
73938;SDS011;62291;47.554;8.504;2023-02-18T06:02:36;2.33;;;1.60;;
73938;SDS011;62291;47.554;8.504;2023-02-18T06:05:03;4.57;;;2.92;;
73938;SDS011;62291;47.554;8.504;2023-02-18T06:07:29;5.53;;;2.85;;
73938;SDS011;62291;47.554;8.504;2023-02-18T06:09:55;4.90;;;2.60;;
73938;SDS011;62291;47.554;8.504;2023-02-18T06:12:21;4.88;;;2.67;;
73938;SDS011;62291;47.554;8.504;2023-02-18T06:14:47;9.55;;;3.60;;
73938;SDS011;62291;47.554;8.504;2023-02-18T06:17:13;6.03;;;4.05;;
73938;SDS011;62291;47.554;8.504;2023-02-18T06:19:39;6.47;;;4.63;;
73938;SDS011;62291;47.554;8.504;2023-02-18T06:22:05;6.95;;;4.18;;
73938;SDS011;62291;47.554;8.504;2023-02-18T06:24:31;7.68;;;4.90;;
73938;SDS011;62291;47.554;8.504;2023-02-18T06:26:57;10.02;;;5.40;;
73938;SDS011;62291;47.554;8.504;2023-02-18T06:29:22;7.05;;;4.72;;
73938;SDS011;62291;47.554;8.504;2023-02-18T06:31:48;8.93;;;4.90;;
73938;SDS011;62291;47.554;8.504;2023-02-18T06:34:14;7.95;;;4.63;;
73938;SDS011;62291;47.554;8.504;2023-02-18T06:36:40;8.50;;;4.88;;
73938;SDS011;62291;47.554;8.504;2023-02-18T06:39:05;6.60;;;4.90;;
73938;SDS011;62291;47.554;8.504;2023-02-18T06:41:32;7.28;;;5.22;;
73938;SDS011;62291;47.554;8.504;2023-02-18T06:43:58;7.60;;;3.88;;
73938;SDS011;62291;47.554;8.504;2023-02-18T06:46:23;5.72;;;3.40;;
73938;SDS011;62291;47.554;8.504;2023-02-18T06:48:49;8.10;;;4.55;;
73938;SDS011;62291;47.554;8.504;2023-02-18T06:51:15;7.70;;;3.45;;
73938;SDS011;62291;47.554;8.504;2023-02-18T06:53:43;5.10;;;3.67;;
73938;SDS011;62291;47.554;8.504;2023-02-18T06:56:09;5.43;;;2.60;;
73938;SDS011;62291;47.554;8.504;2023-02-18T06:58:35;5.40;;;2.80;;
73938;SDS011;62291;47.554;8.504;2023-02-18T07:01:00;5.40;;;2.85;;
73938;SDS011;62291;47.554;8.504;2023-02-18T07:03:27;4.72;;;2.78;;
73938;SDS011;62291;47.554;8.504;2023-02-18T07:05:53;3.88;;;2.78;;
73938;SDS011;62291;47.554;8.504;2023-02-18T07:08:19;6.85;;;3.15;;
73938;SDS011;62291;47.554;8.504;2023-02-18T07:10:45;4.25;;;2.70;;
73938;SDS011;62291;47.554;8.504;2023-02-18T07:13:12;4.80;;;2.60;;
73938;SDS011;62291;47.554;8.504;2023-02-18T07:15:38;5.28;;;2.78;;
73938;SDS011;62291;47.554;8.504;2023-02-18T07:18:04;3.45;;;2.45;;
73938;SDS011;62291;47.554;8.504;2023-02-18T07:20:29;3.47;;;2.22;;
73938;SDS011;62291;47.554;8.504;2023-02-18T07:22:55;6.00;;;2.45;;
73938;SDS011;62291;47.554;8.504;2023-02-18T07:25:21;3.25;;;2.15;;
73938;SDS011;62291;47.554;8.504;2023-02-18T07:27:47;5.00;;;2.33;;
73938;SDS011;62291;47.554;8.504;2023-02-18T07:30:13;5.35;;;2.55;;
73938;SDS011;62291;47.554;8.504;2023-02-18T07:32:39;6.45;;;3.00;;
73938;SDS011;62291;47.554;8.504;2023-02-18T07:35:05;3.75;;;2.33;;
73938;SDS011;62291;47.554;8.504;2023-02-18T07:37:31;4.13;;;2.70;;
73938;SDS011;62291;47.554;8.504;2023-02-18T07:39:57;3.65;;;2.40;;
73938;SDS011;62291;47.554;8.504;2023-02-18T07:42:23;4.32;;;2.75;;
73938;SDS011;62291;47.554;8.504;2023-02-18T07:44:48;4.78;;;3.13;;
73938;SDS011;62291;47.554;8.504;2023-02-18T07:47:14;3.58;;;2.78;;
73938;SDS011;62291;47.554;8.504;2023-02-18T07:49:45;4.55;;;2.75;;
73938;SDS011;62291;47.554;8.504;2023-02-18T07:52:11;6.60;;;2.80;;
73938;SDS011;62291;47.554;8.504;2023-02-18T07:54:37;4.65;;;2.45;;
73938;SDS011;62291;47.554;8.504;2023-02-18T07:57:03;4.97;;;3.00;;
73938;SDS011;62291;47.554;8.504;2023-02-18T07:59:29;4.72;;;3.00;;
73938;SDS011;62291;47.554;8.504;2023-02-18T08:01:54;4.68;;;2.97;;
73938;SDS011;62291;47.554;8.504;2023-02-18T08:04:20;4.35;;;2.67;;
73938;SDS011;62291;47.554;8.504;2023-02-18T08:06:47;5.70;;;3.10;;
73938;SDS011;62291;47.554;8.504;2023-02-18T08:09:14;3.15;;;2.30;;
73938;SDS011;62291;47.554;8.504;2023-02-18T08:11:40;4.72;;;2.90;;
73938;SDS011;62291;47.554;8.504;2023-02-18T08:14:06;3.40;;;2.25;;
73938;SDS011;62291;47.554;8.504;2023-02-18T08:16:32;4.78;;;1.80;;
73938;SDS011;62291;47.554;8.504;2023-02-18T08:18:58;3.05;;;2.13;;
73938;SDS011;62291;47.554;8.504;2023-02-18T08:21:25;4.70;;;2.40;;
73938;SDS011;62291;47.554;8.504;2023-02-18T08:23:51;2.67;;;1.80;;
73938;SDS011;62291;47.554;8.504;2023-02-18T08:26:17;3.38;;;1.35;;
73938;SDS011;62291;47.554;8.504;2023-02-18T08:28:44;2.40;;;1.30;;
73938;SDS011;62291;47.554;8.504;2023-02-18T08:31:15;1.60;;;1.10;;
73938;SDS011;62291;47.554;8.504;2023-02-18T08:33:49;1.73;;;1.08;;
73938;SDS011;62291;47.554;8.504;2023-02-18T08:36:16;2.40;;;0.90;;
73938;SDS011;62291;47.554;8.504;2023-02-18T08:38:42;1.45;;;0.82;;
73938;SDS011;62291;47.554;8.504;2023-02-18T08:41:08;1.20;;;0.80;;
73938;SDS011;62291;47.554;8.504;2023-02-18T08:43:34;1.92;;;0.90;;
73938;SDS011;62291;47.554;8.504;2023-02-18T08:46:00;1.40;;;0.82;;
73938;SDS011;62291;47.554;8.504;2023-02-18T08:48:27;1.20;;;0.63;;
73938;SDS011;62291;47.554;8.504;2023-02-18T08:50:53;1.02;;;0.60;;
73938;SDS011;62291;47.554;8.504;2023-02-18T08:53:19;1.33;;;0.88;;
73938;SDS011;62291;47.554;8.504;2023-02-18T08:55:46;1.67;;;0.70;;
73938;SDS011;62291;47.554;8.504;2023-02-18T08:58:11;3.17;;;0.88;;
73938;SDS011;62291;47.554;8.504;2023-02-18T09:00:38;1.33;;;0.70;;
73938;SDS011;62291;47.554;8.504;2023-02-18T09:03:05;1.05;;;0.68;;
73938;SDS011;62291;47.554;8.504;2023-02-18T09:05:30;2.10;;;0.75;;
73938;SDS011;62291;47.554;8.504;2023-02-18T09:07:56;3.75;;;0.90;;
73938;SDS011;62291;47.554;8.504;2023-02-18T09:10:22;1.73;;;0.90;;
73938;SDS011;62291;47.554;8.504;2023-02-18T09:12:48;1.25;;;0.60;;
73938;SDS011;62291;47.554;8.504;2023-02-18T09:15:14;3.45;;;0.70;;
73938;SDS011;62291;47.554;8.504;2023-02-18T09:17:39;1.45;;;0.70;;
73938;SDS011;62291;47.554;8.504;2023-02-18T09:20:05;2.42;;;0.60;;
73938;SDS011;62291;47.554;8.504;2023-02-18T09:22:31;1.65;;;0.80;;
73938;SDS011;62291;47.554;8.504;2023-02-18T09:24:57;2.65;;;0.90;;
73938;SDS011;62291;47.554;8.504;2023-02-18T09:27:23;1.40;;;0.77;;
73938;SDS011;62291;47.554;8.504;2023-02-18T09:29:49;1.35;;;0.80;;
73938;SDS011;62291;47.554;8.504;2023-02-18T09:32:15;1.20;;;0.80;;
73938;SDS011;62291;47.554;8.504;2023-02-18T09:34:42;1.30;;;0.80;;
73938;SDS011;62291;47.554;8.504;2023-02-18T09:37:09;1.73;;;0.90;;
73938;SDS011;62291;47.554;8.504;2023-02-18T09:39:35;1.85;;;0.93;;
73938;SDS011;62291;47.554;8.504;2023-02-18T09:42:02;1.73;;;0.80;;
73938;SDS011;62291;47.554;8.504;2023-02-18T09:47:33;1.27;;;1.00;;
73938;SDS011;62291;47.554;8.504;2023-02-18T09:52:42;2.58;;;1.17;;
73938;SDS011;62291;47.554;8.504;2023-02-18T09:57:44;1.40;;;0.90;;
73938;SDS011;62291;47.554;8.504;2023-02-18T10:00:14;2.00;;;0.80;;
73938;SDS011;62291;47.554;8.504;2023-02-18T10:02:55;2.55;;;1.20;;
73938;SDS011;62291;47.554;8.504;2023-02-18T10:05:33;1.40;;;1.02;;
73938;SDS011;62291;47.554;8.504;2023-02-18T10:08:02;2.13;;;1.13;;
73938;SDS011;62291;47.554;8.504;2023-02-18T10:10:33;2.30;;;1.23;;
73938;SDS011;62291;47.554;8.504;2023-02-18T10:13:09;2.92;;;1.33;;
73938;SDS011;62291;47.554;8.504;2023-02-18T10:15:43;2.80;;;1.30;;
73938;SDS011;62291;47.554;8.504;2023-02-18T10:18:43;2.33;;;1.40;;
73938;SDS011;62291;47.554;8.504;2023-02-18T10:21:08;5.63;;;1.50;;
73938;SDS011;62291;47.554;8.504;2023-02-18T10:23:39;2.95;;;1.40;;
73938;SDS011;62291;47.554;8.504;2023-02-18T10:26:15;3.22;;;1.67;;
73938;SDS011;62291;47.554;8.504;2023-02-18T10:28:41;2.92;;;1.90;;
73938;SDS011;62291;47.554;8.504;2023-02-18T10:31:09;3.83;;;1.77;;
73938;SDS011;62291;47.554;8.504;2023-02-18T10:33:41;3.97;;;1.80;;
73938;SDS011;62291;47.554;8.504;2023-02-18T10:36:22;3.00;;;2.20;;
73938;SDS011;62291;47.554;8.504;2023-02-18T10:39:01;3.63;;;2.20;;
73938;SDS011;62291;47.554;8.504;2023-02-18T10:44:49;5.13;;;2.08;;
73938;SDS011;62291;47.554;8.504;2023-02-18T10:53:02;2.78;;;2.08;;
73938;SDS011;62291;47.554;8.504;2023-02-18T10:55:38;3.13;;;2.03;;
73938;SDS011;62291;47.554;8.504;2023-02-18T11:01:15;3.70;;;2.03;;
73938;SDS011;62291;47.554;8.504;2023-02-18T11:03:45;1.98;;;1.60;;
73938;SDS011;62291;47.554;8.504;2023-02-18T11:06:24;2.55;;;2.00;;
73938;SDS011;62291;47.554;8.504;2023-02-18T11:08:56;4.30;;;1.90;;
73938;SDS011;62291;47.554;8.504;2023-02-18T11:11:26;3.95;;;2.28;;
73938;SDS011;62291;47.554;8.504;2023-02-18T11:13:59;3.38;;;2.03;;
73938;SDS011;62291;47.554;8.504;2023-02-18T11:16:40;2.90;;;2.15;;
73938;SDS011;62291;47.554;8.504;2023-02-18T11:19:30;3.03;;;1.90;;
73938;SDS011;62291;47.554;8.504;2023-02-18T11:22:07;3.13;;;2.00;;
73938;SDS011;62291;47.554;8.504;2023-02-18T11:24:40;4.05;;;2.20;;
73938;SDS011;62291;47.554;8.504;2023-02-18T11:27:14;3.92;;;2.15;;
73938;SDS011;62291;47.554;8.504;2023-02-18T11:30:03;2.78;;;2.10;;
73938;SDS011;62291;47.554;8.504;2023-02-18T11:32:33;2.22;;;1.30;;
73938;SDS011;62291;47.554;8.504;2023-02-18T11:35:00;2.60;;;1.30;;
73938;SDS011;62291;47.554;8.504;2023-02-18T11:37:27;2.28;;;1.58;;
73938;SDS011;62291;47.554;8.504;2023-02-18T11:39:56;2.28;;;1.40;;
73938;SDS011;62291;47.554;8.504;2023-02-18T11:42:22;3.08;;;1.40;;
73938;SDS011;62291;47.554;8.504;2023-02-18T11:44:54;3.58;;;1.20;;
73938;SDS011;62291;47.554;8.504;2023-02-18T11:47:30;2.83;;;1.15;;
73938;SDS011;62291;47.554;8.504;2023-02-18T11:55:05;0.90;;;0.40;;
73938;SDS011;62291;47.554;8.504;2023-02-18T11:57:33;0.85;;;0.43;;
73938;SDS011;62291;47.554;8.504;2023-02-18T12:00:03;1.23;;;0.40;;
73938;SDS011;62291;47.554;8.504;2023-02-18T12:02:40;0.80;;;0.35;;
73938;SDS011;62291;47.554;8.504;2023-02-18T12:07:54;0.75;;;0.30;;
73938;SDS011;62291;47.554;8.504;2023-02-18T12:13:09;1.23;;;0.40;;
73938;SDS011;62291;47.554;8.504;2023-02-18T12:33:09;3.20;;;0.38;;
73938;SDS011;62291;47.554;8.504;2023-02-18T12:49:03;0.68;;;0.20;;
73938;SDS011;62291;47.554;8.504;2023-02-18T13:05:11;0.60;;;0.30;;
73938;SDS011;62291;47.554;8.504;2023-02-18T13:10:46;0.82;;;0.30;;
73938;SDS011;62291;47.554;8.504;2023-02-18T13:13:19;0.30;;;0.20;;
73938;SDS011;62291;47.554;8.504;2023-02-18T13:18:28;0.43;;;0.20;;
73938;SDS011;62291;47.554;8.504;2023-02-18T13:21:00;0.40;;;0.20;;
73938;SDS011;62291;47.554;8.504;2023-02-18T13:23:31;1.02;;;0.28;;
73938;SDS011;62291;47.554;8.504;2023-02-18T13:26:01;0.30;;;0.20;;
73938;SDS011;62291;47.554;8.504;2023-02-18T13:37:20;3.53;;;1.40;;
73938;SDS011;62291;47.554;8.504;2023-02-18T13:39:55;1.00;;;0.43;;
73938;SDS011;62291;47.554;8.504;2023-02-18T13:42:29;1.42;;;0.50;;
73938;SDS011;62291;47.554;8.504;2023-02-18T13:47:47;1.65;;;0.38;;
73938;SDS011;62291;47.554;8.504;2023-02-18T13:55:38;0.88;;;0.30;;
73938;SDS011;62291;47.554;8.504;2023-02-18T13:58:23;0.50;;;0.30;;
73938;SDS011;62291;47.554;8.504;2023-02-18T14:03:57;0.75;;;0.30;;
73938;SDS011;62291;47.554;8.504;2023-02-18T14:06:25;0.93;;;0.30;;
73938;SDS011;62291;47.554;8.504;2023-02-18T14:11:55;0.98;;;0.50;;
73938;SDS011;62291;47.554;8.504;2023-02-18T14:14:39;1.38;;;0.50;;
73938;SDS011;62291;47.554;8.504;2023-02-18T14:19:52;1.13;;;0.40;;
73938;SDS011;62291;47.554;8.504;2023-02-18T14:23:00;1.25;;;0.35;;
73938;SDS011;62291;47.554;8.504;2023-02-18T14:27:36;0.57;;;0.35;;
73938;SDS011;62291;47.554;8.504;2023-02-18T14:30:04;0.63;;;0.30;;
73938;SDS011;62291;47.554;8.504;2023-02-18T14:32:31;0.93;;;0.30;;
73938;SDS011;62291;47.554;8.504;2023-02-18T14:35:05;3.13;;;0.30;;
73938;SDS011;62291;47.554;8.504;2023-02-18T14:40:44;0.77;;;0.30;;
73938;SDS011;62291;47.554;8.504;2023-02-18T14:48:57;1.13;;;0.40;;
73938;SDS011;62291;47.554;8.504;2023-02-18T14:51:43;0.75;;;0.30;;
73938;SDS011;62291;47.554;8.504;2023-02-18T14:54:13;2.17;;;0.43;;
73938;SDS011;62291;47.554;8.504;2023-02-18T14:57:26;0.60;;;0.38;;
73938;SDS011;62291;47.554;8.504;2023-02-18T14:59:38;0.98;;;0.43;;
73938;SDS011;62291;47.554;8.504;2023-02-18T15:02:14;1.00;;;0.35;;
73938;SDS011;62291;47.554;8.504;2023-02-18T15:04:46;0.70;;;0.50;;
73938;SDS011;62291;47.554;8.504;2023-02-18T15:07:17;1.83;;;0.50;;
73938;SDS011;62291;47.554;8.504;2023-02-18T15:09:47;2.03;;;0.40;;
73938;SDS011;62291;47.554;8.504;2023-02-18T15:12:17;1.38;;;0.60;;
73938;SDS011;62291;47.554;8.504;2023-02-18T15:14:46;1.48;;;0.40;;
73938;SDS011;62291;47.554;8.504;2023-02-18T15:17:15;0.90;;;0.40;;
73938;SDS011;62291;47.554;8.504;2023-02-18T15:19:47;0.88;;;0.40;;
73938;SDS011;62291;47.554;8.504;2023-02-18T15:22:17;1.08;;;0.40;;
73938;SDS011;62291;47.554;8.504;2023-02-18T15:24:45;2.17;;;0.40;;
73938;SDS011;62291;47.554;8.504;2023-02-18T15:27:15;0.95;;;0.40;;
73938;SDS011;62291;47.554;8.504;2023-02-18T15:30:02;0.88;;;0.50;;
73938;SDS011;62291;47.554;8.504;2023-02-18T15:32:52;0.60;;;0.47;;
73938;SDS011;62291;47.554;8.504;2023-02-18T15:35:19;1.15;;;0.50;;
73938;SDS011;62291;47.554;8.504;2023-02-18T15:37:50;0.90;;;0.63;;
73938;SDS011;62291;47.554;8.504;2023-02-18T15:40:19;0.77;;;0.40;;
73938;SDS011;62291;47.554;8.504;2023-02-18T15:42:48;1.40;;;0.50;;
73938;SDS011;62291;47.554;8.504;2023-02-18T15:45:18;0.80;;;0.50;;
73938;SDS011;62291;47.554;8.504;2023-02-18T15:50:16;3.50;;;1.80;;
73938;SDS011;62291;47.554;8.504;2023-02-18T15:52:42;1.08;;;0.60;;
73938;SDS011;62291;47.554;8.504;2023-02-18T15:55:30;0.90;;;0.60;;
73938;SDS011;62291;47.554;8.504;2023-02-18T15:57:56;0.70;;;0.50;;
73938;SDS011;62291;47.554;8.504;2023-02-18T16:06:17;1.30;;;0.70;;
73938;SDS011;62291;47.554;8.504;2023-02-18T16:11:57;2.05;;;0.52;;
73938;SDS011;62291;47.554;8.504;2023-02-18T16:19:53;0.80;;;0.50;;
73938;SDS011;62291;47.554;8.504;2023-02-18T16:27:33;1.05;;;0.60;;
73938;SDS011;62291;47.554;8.504;2023-02-18T16:32:59;1.60;;;0.90;;
73938;SDS011;62291;47.554;8.504;2023-02-18T16:35:26;3.13;;;0.98;;
73938;SDS011;62291;47.554;8.504;2023-02-18T16:37:54;2.17;;;0.93;;
73938;SDS011;62291;47.554;8.504;2023-02-18T16:42:55;8.38;;;4.40;;
73938;SDS011;62291;47.554;8.504;2023-02-18T16:45:36;0.98;;;0.50;;
73938;SDS011;62291;47.554;8.504;2023-02-18T16:48:04;1.30;;;0.80;;
73938;SDS011;62291;47.554;8.504;2023-02-18T16:50:31;1.73;;;0.77;;
73938;SDS011;62291;47.554;8.504;2023-02-18T16:52:58;2.40;;;0.88;;
73938;SDS011;62291;47.554;8.504;2023-02-18T16:55:26;2.00;;;0.73;;
73938;SDS011;62291;47.554;8.504;2023-02-18T16:57:54;1.50;;;0.70;;
73938;SDS011;62291;47.554;8.504;2023-02-18T17:00:22;2.35;;;0.70;;
73938;SDS011;62291;47.554;8.504;2023-02-18T17:02:49;1.58;;;0.70;;
73938;SDS011;62291;47.554;8.504;2023-02-18T17:05:18;1.55;;;0.77;;
73938;SDS011;62291;47.554;8.504;2023-02-18T17:07:50;1.70;;;0.70;;
73938;SDS011;62291;47.554;8.504;2023-02-18T17:10:16;1.08;;;0.75;;
73938;SDS011;62291;47.554;8.504;2023-02-18T17:12:44;2.53;;;0.88;;
73938;SDS011;62291;47.554;8.504;2023-02-18T17:15:30;2.20;;;1.05;;
73938;SDS011;62291;47.554;8.504;2023-02-18T17:17:59;1.67;;;0.90;;
73938;SDS011;62291;47.554;8.504;2023-02-18T17:20:31;1.90;;;1.10;;
73938;SDS011;62291;47.554;8.504;2023-02-18T17:22:57;1.95;;;0.90;;
73938;SDS011;62291;47.554;8.504;2023-02-18T17:25:27;2.10;;;1.17;;
73938;SDS011;62291;47.554;8.504;2023-02-18T17:27:53;1.60;;;0.98;;
73938;SDS011;62291;47.554;8.504;2023-02-18T17:30:19;1.92;;;1.00;;
73938;SDS011;62291;47.554;8.504;2023-02-18T17:32:45;3.05;;;1.10;;
73938;SDS011;62291;47.554;8.504;2023-02-18T17:35:15;1.20;;;0.90;;
73938;SDS011;62291;47.554;8.504;2023-02-18T17:37:46;4.47;;;1.00;;
73938;SDS011;62291;47.554;8.504;2023-02-18T17:40:19;1.60;;;0.90;;
73938;SDS011;62291;47.554;8.504;2023-02-18T17:42:48;1.95;;;0.90;;
73938;SDS011;62291;47.554;8.504;2023-02-18T17:45:17;1.75;;;0.98;;
73938;SDS011;62291;47.554;8.504;2023-02-18T17:47:53;1.15;;;0.77;;
73938;SDS011;62291;47.554;8.504;2023-02-18T17:50:22;1.77;;;1.20;;
73938;SDS011;62291;47.554;8.504;2023-02-18T17:52:49;2.17;;;1.00;;
73938;SDS011;62291;47.554;8.504;2023-02-18T17:55:21;3.35;;;1.02;;
73938;SDS011;62291;47.554;8.504;2023-02-18T17:57:49;1.27;;;0.85;;
73938;SDS011;62291;47.554;8.504;2023-02-18T18:00:17;2.83;;;1.02;;
73938;SDS011;62291;47.554;8.504;2023-02-18T18:02:48;1.95;;;0.93;;
73938;SDS011;62291;47.554;8.504;2023-02-18T18:05:15;2.20;;;1.05;;
73938;SDS011;62291;47.554;8.504;2023-02-18T18:10:13;1.75;;;0.80;;
73938;SDS011;62291;47.554;8.504;2023-02-18T18:12:39;1.75;;;0.82;;
73938;SDS011;62291;47.554;8.504;2023-02-18T18:15:51;2.95;;;1.15;;